createdAt,value
2023-03-28T00:01:57.540Z,65.80
2023-03-28T00:05:00.202Z,65.40
2023-03-28T00:08:02.385Z,64.50
2023-03-28T00:11:19.015Z,63.90
2023-03-28T00:14:21.141Z,63.50
2023-03-28T00:17:24.672Z,64.10
2023-03-28T00:20:30.002Z,65.00
2023-03-28T00:23:34.079Z,66.30
2023-03-28T00:26:37.929Z,67.30
2023-03-28T00:29:40.074Z,66.90
2023-03-28T00:32:51.134Z,66.70
2023-03-28T00:35:53.204Z,67.10
2023-03-28T00:38:59.030Z,67.20
2023-03-28T00:42:04.304Z,67.50
2023-03-28T00:45:11.319Z,67.10
2023-03-28T00:48:15.615Z,67.00
2023-03-28T00:51:21.108Z,68.10
2023-03-28T00:54:28.223Z,68.70
2023-03-28T00:57:30.384Z,68.20
2023-03-28T01:00:34.980Z,67.40
2023-03-28T01:03:41.600Z,66.90
2023-03-28T01:06:47.956Z,66.90
2023-03-28T01:09:50.714Z,67.40
2023-03-28T01:12:56.301Z,67.40
2023-03-28T01:15:59.696Z,67.70
2023-03-28T01:19:02.807Z,68.50
2023-03-28T01:22:30.244Z,68.50
2023-03-28T01:25:42.852Z,68.80
2023-03-28T01:28:44.787Z,68.40
2023-03-28T01:32:01.655Z,67.40
2023-03-28T01:35:22.389Z,68.90
2023-03-28T01:38:42.321Z,68.50
2023-03-28T01:41:45.226Z,68.80
2023-03-28T01:45:06.572Z,69.40
2023-03-28T01:48:23.804Z,69.10
2023-03-28T01:51:50.857Z,69.80
2023-03-28T01:55:05.629Z,69.60
2023-03-28T01:58:16.432Z,69.10
2023-03-28T02:01:31.248Z,68.90
2023-03-28T02:04:36.682Z,69.40
2023-03-28T02:07:41.171Z,69.90
2023-03-28T02:10:46.010Z,70.40
2023-03-28T02:13:55.974Z,68.60
2023-03-28T02:17:02.051Z,69.10
2023-03-28T02:20:09.132Z,69.50
2023-03-28T02:23:40.412Z,69.50
2023-03-28T02:26:42.909Z,69.50
2023-03-28T02:29:50.683Z,69.20
2023-03-28T02:32:58.233Z,69.70
2023-03-28T02:36:35.048Z,70.70
2023-03-28T02:40:13.970Z,70.80
2023-03-28T02:43:16.122Z,70.50
2023-03-28T02:46:43.923Z,70.50
2023-03-28T02:50:04.770Z,71.10
2023-03-28T02:53:44.900Z,71.20
2023-03-28T02:57:04.054Z,70.30
2023-03-28T03:00:13.084Z,69.40
2023-03-28T03:03:16.976Z,67.80
2023-03-28T03:06:19.480Z,68.40
2023-03-28T03:09:23.154Z,68.60
2023-03-28T03:12:25.484Z,69.00
2023-03-28T03:15:30.908Z,69.60
2023-03-28T03:18:35.060Z,69.80
2023-03-28T03:21:37.463Z,69.70
2023-03-28T03:24:39.512Z,70.40
2023-03-28T03:27:41.687Z,70.00
2023-03-28T03:30:43.968Z,70.30
2023-03-28T03:33:46.137Z,70.10
2023-03-28T03:36:55.113Z,69.00
2023-03-28T03:39:57.169Z,69.00
2023-03-28T03:42:59.214Z,67.70
2023-03-28T03:46:02.933Z,67.60
2023-03-28T03:49:05.200Z,68.30
2023-03-28T03:52:07.236Z,69.20
2023-03-28T03:55:09.671Z,69.50
2023-03-28T03:58:12.142Z,69.30
2023-03-28T04:01:14.184Z,69.60
2023-03-28T04:04:16.336Z,70.30
2023-03-28T04:07:18.574Z,70.30
2023-03-28T04:10:20.824Z,70.90
2023-03-28T04:13:23.043Z,70.90
2023-03-28T04:16:25.077Z,70.90
2023-03-28T04:19:27.679Z,71.40
2023-03-28T04:22:30.097Z,71.50
2023-03-28T04:25:32.280Z,71.70
2023-03-28T04:28:34.377Z,71.50
2023-03-28T04:31:39.740Z,72.20
2023-03-28T04:34:45.936Z,72.40
2023-03-28T04:37:49.447Z,72.00
2023-03-28T04:40:53.725Z,71.80
2023-03-28T04:43:55.886Z,71.90
2023-03-28T04:46:58.570Z,72.60
2023-03-28T04:50:01.817Z,72.60
2023-03-28T04:53:04.013Z,72.00
2023-03-28T04:56:06.475Z,72.00
2023-03-28T04:59:08.510Z,71.60
2023-03-28T05:02:11.101Z,71.10
2023-03-28T05:05:14.075Z,71.10
2023-03-28T05:08:18.039Z,72.30
2023-03-28T05:11:20.080Z,72.80
2023-03-28T05:14:22.211Z,73.00
2023-03-28T05:17:24.963Z,72.70
2023-03-28T05:20:28.367Z,72.60
2023-03-28T05:23:30.434Z,72.10
2023-03-28T05:26:32.512Z,72.20
2023-03-28T05:29:34.741Z,72.60
2023-03-28T05:32:38.342Z,72.70
2023-03-28T05:35:40.620Z,72.60
2023-03-28T05:38:42.786Z,72.60
2023-03-28T05:41:44.866Z,72.50
2023-03-28T05:44:47.011Z,72.70
2023-03-28T05:47:55.709Z,72.50
2023-03-28T05:50:58.331Z,71.80
2023-03-28T05:54:01.060Z,71.30
2023-03-28T05:57:04.082Z,71.80
2023-03-28T06:00:12.414Z,71.70
2023-03-28T06:03:17.093Z,71.70
2023-03-28T06:06:20.525Z,72.70
2023-03-28T06:09:22.700Z,72.80
2023-03-28T06:12:24.758Z,72.70
2023-03-28T06:15:27.456Z,72.90
2023-03-28T06:18:30.544Z,73.50
2023-03-28T06:21:32.624Z,73.00
2023-03-28T06:24:34.837Z,73.20
2023-03-28T06:27:37.113Z,73.20
2023-03-28T06:30:41.908Z,73.20
2023-03-28T06:33:44.478Z,73.30
2023-03-28T06:36:46.504Z,72.60
2023-03-28T06:39:50.812Z,73.00
2023-03-28T06:42:53.715Z,73.30
2023-03-28T06:45:57.207Z,73.20
2023-03-28T06:49:00.949Z,73.50
2023-03-28T06:52:03.921Z,73.70
2023-03-28T06:55:06.426Z,73.80
2023-03-28T06:58:08.514Z,73.50
2023-03-28T07:01:10.905Z,73.40
2023-03-28T07:04:12.985Z,72.10
2023-03-28T07:07:15.462Z,72.40
2023-03-28T07:10:17.634Z,70.90
2023-03-28T07:13:19.706Z,68.90
2023-03-28T07:16:21.769Z,67.30
2023-03-28T07:19:24.258Z,66.50
2023-03-28T07:22:27.366Z,65.60
2023-03-28T07:25:29.446Z,64.30
2023-03-28T07:28:31.711Z,63.30
2023-03-28T07:31:34.866Z,62.00
2023-03-28T07:34:36.918Z,59.50
2023-03-28T07:37:38.974Z,59.40
2023-03-28T07:40:41.076Z,59.50
2023-03-28T07:43:43.440Z,58.40
2023-03-28T07:46:47.014Z,59.50
2023-03-28T07:49:49.117Z,57.30
2023-03-28T07:52:57.649Z,57.90
2023-03-28T07:55:59.946Z,55.00
2023-03-28T07:59:02.343Z,55.30
2023-03-28T08:02:04.369Z,53.00
2023-03-28T08:05:06.658Z,51.70
2023-03-28T08:08:10.079Z,50.70
2023-03-28T08:11:13.533Z,51.20
2023-03-28T08:14:18.427Z,49.80
2023-03-28T08:17:20.676Z,48.90
2023-03-28T08:20:22.770Z,49.20
2023-03-28T08:23:26.609Z,48.80
2023-03-28T08:26:29.043Z,47.30
2023-03-28T08:29:32.408Z,47.40
2023-03-28T08:32:34.492Z,46.40
2023-03-28T08:35:38.255Z,46.80
2023-03-28T08:38:42.829Z,45.20
2023-03-28T08:42:06.458Z,45.20
2023-03-28T08:45:47.196Z,42.80
2023-03-28T08:48:52.038Z,43.20
2023-03-28T08:52:00.726Z,42.80
2023-03-28T08:55:28.122Z,42.20
2023-03-28T08:58:42.670Z,40.40
2023-03-28T09:01:45.499Z,39.20
2023-03-28T09:04:51.055Z,39.40
2023-03-28T09:08:16.154Z,38.40
2023-03-28T09:11:39.316Z,37.60
2023-03-28T09:14:50.064Z,36.60
2023-03-28T09:17:56.502Z,35.90
2023-03-28T09:21:21.159Z,34.40
2023-03-28T09:24:26.404Z,33.70
2023-03-28T09:27:37.801Z,34.20
2023-03-28T09:30:45.555Z,32.10
2023-03-28T09:33:50.135Z,32.50
2023-03-28T09:36:56.736Z,33.10
2023-03-28T09:40:29.142Z,35.70
2023-03-28T09:43:34.256Z,31.80
2023-03-28T09:46:47.152Z,30.40
2023-03-28T09:49:54.339Z,29.40
2023-03-28T09:52:59.263Z,29.20
2023-03-28T09:56:12.164Z,28.80
2023-03-28T09:59:29.250Z,28.00
2023-03-28T10:02:33.972Z,28.30
2023-03-28T10:05:40.190Z,30.40
2023-03-28T10:08:42.891Z,29.30
2023-03-28T10:11:57.616Z,28.60
2023-03-28T10:15:04.412Z,28.70
2023-03-28T10:18:06.821Z,28.30
2023-03-28T10:21:15.699Z,27.80
2023-03-28T10:24:22.257Z,27.50
2023-03-28T10:27:31.995Z,26.70
2023-03-28T10:30:37.200Z,27.90
2023-03-28T10:33:46.503Z,28.10
2023-03-28T10:36:48.595Z,28.00
2023-03-28T10:40:02.455Z,27.30
2023-03-28T10:43:15.487Z,27.80
2023-03-28T10:46:20.426Z,26.00
2023-03-28T10:49:24.277Z,27.50
2023-03-28T10:52:52.563Z,26.70
2023-03-28T10:56:15.708Z,27.20
2023-03-28T10:59:49.977Z,27.00
2023-03-28T11:03:10.638Z,26.80
2023-03-28T11:06:25.574Z,25.50
2023-03-28T11:09:40.417Z,25.00
2023-03-28T11:13:15.749Z,25.20
2023-03-28T11:16:25.398Z,27.10
2023-03-28T11:19:39.804Z,27.00
2023-03-28T11:23:07.811Z,26.30
2023-03-28T11:26:22.179Z,25.20
2023-03-28T11:29:49.771Z,26.10
2023-03-28T11:33:39.248Z,25.90
2023-03-28T11:37:23.201Z,27.40
2023-03-28T11:40:33.752Z,27.10
2023-03-28T11:43:58.282Z,27.10
2023-03-28T11:47:25.887Z,27.90
2023-03-28T11:50:35.648Z,28.50
2023-03-28T11:53:52.068Z,30.70
2023-03-28T11:57:06.077Z,32.80
2023-03-28T12:00:32.257Z,32.80
2023-03-28T12:03:55.186Z,34.70
2023-03-28T12:07:18.786Z,35.20
2023-03-28T12:10:36.215Z,35.10
2023-03-28T12:14:05.233Z,35.70
2023-03-28T12:17:39.261Z,37.00
2023-03-28T12:20:54.120Z,37.10
2023-03-28T12:23:59.672Z,37.90
2023-03-28T12:27:07.808Z,39.20
2023-03-28T12:30:21.178Z,40.90
2023-03-28T12:33:38.268Z,42.60
2023-03-28T12:36:51.464Z,43.30
2023-03-28T12:40:13.655Z,42.80
2023-03-28T12:43:18.722Z,44.80
2023-03-28T12:46:50.106Z,44.90
2023-03-28T12:49:57.365Z,44.90
2023-03-28T12:53:00.751Z,45.60
2023-03-28T12:56:03.663Z,46.70
2023-03-28T12:59:51.839Z,45.50
2023-03-28T13:03:05.968Z,44.60
2023-03-28T13:06:42.732Z,46.40
2023-03-28T13:10:35.804Z,45.10
2023-03-28T13:13:50.612Z,45.10
2023-03-28T13:17:01.574Z,44.50
2023-03-28T13:20:17.653Z,45.40
2023-03-28T13:23:28.961Z,45.90
2023-03-28T13:26:59.854Z,44.70
2023-03-28T13:30:29.968Z,44.80
2023-03-28T13:34:00.987Z,44.20
2023-03-28T13:37:23.134Z,42.30
2023-03-28T13:40:43.097Z,42.00
2023-03-28T13:44:00.581Z,39.00
2023-03-28T13:47:02.882Z,38.30
2023-03-28T13:50:18.819Z,39.30
2023-03-28T13:53:20.834Z,37.10
2023-03-28T13:56:29.975Z,37.70
2023-03-28T13:59:35.977Z,39.10
2023-03-28T14:02:43.517Z,38.50
2023-03-28T14:05:46.526Z,38.40
2023-03-28T14:08:51.513Z,38.30
2023-03-28T14:12:03.172Z,33.30
2023-03-28T14:15:07.123Z,35.20
2023-03-28T14:18:43.149Z,34.90
2023-03-28T14:21:47.164Z,34.30
2023-03-28T14:24:54.284Z,33.50
2023-03-28T14:27:57.418Z,32.70
2023-03-28T14:31:00.932Z,32.30
2023-03-28T14:34:30.492Z,32.20
2023-03-28T14:37:32.694Z,32.20
2023-03-28T14:40:39.059Z,33.00
2023-03-28T14:43:52.457Z,30.30
2023-03-28T14:47:00.139Z,30.00
2023-03-28T14:50:03.446Z,37.60
2023-03-28T14:53:12.438Z,43.80
2023-03-28T14:56:24.692Z,45.70
2023-03-28T14:59:35.112Z,45.40
2023-03-28T15:02:40.949Z,45.60
2023-03-28T15:05:45.370Z,45.60
2023-03-28T15:08:47.516Z,45.80
2023-03-28T15:11:49.628Z,46.10
2023-03-28T15:14:51.973Z,45.80
2023-03-28T15:17:57.287Z,46.60
2023-03-28T15:21:02.907Z,47.30
2023-03-28T15:24:08.149Z,49.20
2023-03-28T15:27:31.792Z,48.70
2023-03-28T15:30:36.313Z,48.80
2023-03-28T15:33:38.520Z,47.20
2023-03-28T15:36:52.876Z,48.60
2023-03-28T15:40:10.869Z,48.10
2023-03-28T15:43:57.059Z,48.20
2023-03-28T15:47:10.983Z,47.80
2023-03-28T15:50:19.578Z,47.50
2023-03-28T15:53:26.790Z,47.40
2023-03-28T15:56:37.163Z,45.20
2023-03-28T15:59:43.919Z,43.60
2023-03-28T16:02:46.926Z,43.50
2023-03-28T16:05:50.063Z,43.30
2023-03-28T16:09:07.289Z,42.50
2023-03-28T16:12:13.613Z,42.30
2023-03-28T16:15:15.769Z,42.80
2023-03-28T16:18:19.606Z,43.30
2023-03-28T16:21:22.054Z,43.10
2023-03-28T16:24:24.285Z,43.60
2023-03-28T16:27:26.799Z,43.00
2023-03-28T16:30:33.935Z,43.30
2023-03-28T16:33:35.986Z,43.30
2023-03-28T16:36:38.946Z,43.70
2023-03-28T16:39:42.657Z,44.00
2023-03-28T16:42:45.976Z,43.40
2023-03-28T16:45:50.080Z,43.10
2023-03-28T16:48:52.402Z,42.30
2023-03-28T16:51:55.744Z,42.30
2023-03-28T16:54:57.884Z,41.50
2023-03-28T16:58:00.019Z,42.60
2023-03-28T17:01:14.125Z,43.70
2023-03-28T17:04:16.341Z,44.30
2023-03-28T17:07:18.808Z,45.00
2023-03-28T17:10:20.923Z,46.10
2023-03-28T17:13:24.909Z,47.20
2023-03-28T17:16:27.497Z,47.20
2023-03-28T17:19:29.643Z,47.60
2023-03-28T17:22:37.034Z,49.80
2023-03-28T17:25:48.278Z,49.10
2023-03-28T17:28:58.367Z,49.60
2023-03-28T17:32:01.859Z,50.20
2023-03-28T17:35:04.212Z,50.90
2023-03-28T17:38:07.100Z,51.10
2023-03-28T17:41:09.278Z,51.30
2023-03-28T17:44:13.658Z,51.00
2023-03-28T17:47:18.587Z,51.80
2023-03-28T17:50:21.641Z,52.30
2023-03-28T17:53:23.994Z,52.60
2023-03-28T17:56:26.378Z,52.90
2023-03-28T17:59:29.399Z,53.50
2023-03-28T18:02:31.650Z,53.00
2023-03-28T18:05:33.893Z,53.90
2023-03-28T18:08:36.461Z,55.00
2023-03-28T18:11:39.539Z,55.60
2023-03-28T18:14:41.825Z,55.30
2023-03-28T18:17:45.252Z,55.70
2023-03-28T18:20:47.417Z,55.80
2023-03-28T18:23:49.693Z,56.10
2023-03-28T18:26:51.744Z,56.70
2023-03-28T18:29:54.851Z,56.60
2023-03-28T18:32:57.376Z,57.10
2023-03-28T18:36:00.124Z,57.50
2023-03-28T18:39:05.690Z,58.10
2023-03-28T18:42:09.179Z,57.80
2023-03-28T18:45:13.304Z,58.30
2023-03-28T18:48:18.601Z,59.00
2023-03-28T18:51:21.048Z,59.40
2023-03-28T18:54:23.146Z,59.40
2023-03-28T18:57:25.336Z,59.80
2023-03-28T19:00:27.885Z,60.50
2023-03-28T19:03:32.241Z,60.70
2023-03-28T19:06:36.249Z,61.60
2023-03-28T19:09:38.354Z,61.20
2023-03-28T19:12:41.806Z,61.40
2023-03-28T19:15:43.928Z,61.90
2023-03-28T19:18:47.082Z,61.70
2023-03-28T19:21:49.088Z,62.70
2023-03-28T19:24:51.125Z,62.00
2023-03-28T19:27:53.335Z,62.10
2023-03-28T19:31:04.456Z,62.60
2023-03-28T19:34:08.407Z,63.00
2023-03-28T19:37:10.565Z,63.00
2023-03-28T19:40:16.835Z,63.70
2023-03-28T19:43:21.332Z,64.70
2023-03-28T19:46:35.508Z,64.40
2023-03-28T19:49:40.392Z,64.50
2023-03-28T19:52:43.099Z,65.40
2023-03-28T19:55:54.679Z,64.80
2023-03-28T19:58:56.691Z,64.50
2023-03-28T20:01:58.838Z,65.50
2023-03-28T20:05:01.098Z,65.80
2023-03-28T20:08:03.736Z,65.70
2023-03-28T20:11:12.068Z,65.50
2023-03-28T20:14:17.384Z,65.40
2023-03-28T20:17:19.575Z,65.80
2023-03-28T20:20:24.068Z,65.60
2023-03-28T20:23:27.193Z,66.20
2023-03-28T20:26:29.294Z,66.10
2023-03-28T20:29:32.557Z,66.40
2023-03-28T20:32:34.770Z,66.60
2023-03-28T20:35:37.317Z,67.70
2023-03-28T20:38:39.610Z,67.20
2023-03-28T20:41:41.913Z,67.30
2023-03-28T20:44:46.494Z,67.20
2023-03-28T20:47:58.873Z,67.80
2023-03-28T20:51:05.963Z,67.50
2023-03-28T20:54:07.929Z,67.90
2023-03-28T20:57:09.945Z,68.40
2023-03-28T21:00:15.033Z,67.80
2023-03-28T21:03:18.601Z,67.60
2023-03-28T21:06:26.690Z,68.10
2023-03-28T21:09:29.729Z,67.10
2023-03-28T21:12:31.689Z,67.20
2023-03-28T21:15:34.857Z,67.30
2023-03-28T21:18:37.540Z,67.30
2023-03-28T21:21:40.635Z,66.80
2023-03-28T21:24:43.684Z,66.60
2023-03-28T21:27:45.919Z,66.60
2023-03-28T21:31:01.839Z,66.30
2023-03-28T21:34:04.081Z,66.30
2023-03-28T21:37:06.250Z,65.90
2023-03-28T21:40:08.917Z,65.80
2023-03-28T21:43:11.358Z,66.00
2023-03-28T21:46:15.154Z,65.80
2023-03-28T21:49:18.297Z,66.00
2023-03-28T21:52:20.607Z,66.00
2023-03-28T21:55:22.726Z,66.00
2023-03-28T21:58:26.157Z,66.10
2023-03-28T22:01:28.345Z,65.90
2023-03-28T22:04:31.004Z,65.80
2023-03-28T22:07:33.561Z,66.30
2023-03-28T22:10:37.683Z,66.30
2023-03-28T22:13:40.352Z,66.30
2023-03-28T22:16:42.751Z,66.50
2023-03-28T22:19:44.826Z,66.30
2023-03-28T22:22:48.705Z,66.50
2023-03-28T22:29:18.710Z,67.00
2023-03-28T22:32:21.210Z,66.80
2023-03-28T22:35:23.609Z,66.90
2023-03-28T22:38:26.070Z,67.60
2023-03-28T22:41:31.795Z,67.40
2023-03-28T22:44:33.917Z,68.00
2023-03-28T22:47:39.585Z,67.90
2023-03-28T22:50:44.376Z,68.20
2023-03-28T22:53:47.258Z,68.80
2023-03-28T22:56:49.991Z,69.70
2023-03-28T22:59:53.275Z,69.20
2023-03-28T23:02:56.208Z,69.40
2023-03-28T23:06:03.098Z,70.30
2023-03-28T23:09:05.245Z,69.90
2023-03-28T23:12:12.853Z,70.30
2023-03-28T23:15:16.196Z,70.20
2023-03-28T23:18:19.984Z,70.50
2023-03-28T23:21:24.559Z,70.50
2023-03-28T23:24:31.533Z,70.30
2023-03-28T23:27:33.854Z,70.60
2023-03-28T23:30:36.532Z,70.40
2023-03-28T23:33:39.014Z,70.20
2023-03-28T23:36:46.103Z,70.90
2023-03-28T23:39:48.130Z,70.70
2023-03-28T23:42:50.394Z,70.70
2023-03-28T23:45:52.911Z,71.10
2023-03-28T23:48:54.924Z,71.10
2023-03-28T23:51:59.707Z,72.00
2023-03-28T23:55:02.568Z,71.90
2023-03-28T23:58:04.949Z,71.80
